OSAP/ALP METAR and TAF weather

Enter ICAO airport designator
Station Type Date Time Source
OSAP METAR 2021/05/14 06:00 UTC NOAA

OSAP 140600Z 26006KT CAVOK 23/11 Q1015


Station Type Date Time Source
OSAP Decoded METAR 2021/05/14 06:00 UTC NOAA

Aleppo International Airport, Syria (OSAP) 36-11N 037-12E 384M
May 14, 2021 - 02:00 AM EDT / 2021.05.14 0600 UTC
Wind: from the W (260 degrees) at 7 MPH (6 KT):0
Visibility: greater than 7 mile(s):0
Temperature: 73 F (23 C)
Dew Point: 51 F (11 C)
Relative Humidity: 46%
Pressure (altimeter): 29.97 in. Hg (1015 hPa)
ob: OSAP 140600Z 26006KT CAVOK 23/11 Q1015
cycle: 6

Station Type Date Time Source
OSAP TAF 2021/03/03 06:03 UTC NOAA

TAF TAF OSAP 030400Z 0306/0406 06004KT 9999 BKN026 OVC100 PROB30
TEMPO 0309/0312 6000-RA BKN026 OVC100 PROB30
TEMPO 0318/0323 BKN026 OVC100

Example: see airport list